<?xml version="1.0" encoding="UTF-8" standalone="no" ?>
 
<gpx xmlns="http://www.topografix.com/GPX/1/1" creator="bikehike.co.uk" version="1.1" 
    xmlns:xsi="http://www.w3.org/2001/XMLSchema-instance" 
    xsi:schemaLocation="http://www.topografix.com/GPX/1/1 http://www.topografix.com/GPX/1/1/gpx.xsd">


  <trk>
    <name>180829-RLE-BodymoorHeath-56m</name>
    <trkseg>
      <trkpt lat="52.371060" lon="-1.834430">
       <ele>146</ele>
       <time>2023-09-30T16:33:25Z</time>
      </trkpt>
      <trkpt lat="52.372697" lon="-1.833851">
       <ele>143</ele>
       <time>2023-09-30T16:33:59Z</time>
      </trkpt>
      <trkpt lat="52.371438" lon="-1.834183">
       <ele>144</ele>
       <time>2023-09-30T16:34:26Z</time>
      </trkpt>
      <trkpt lat="52.367973" lon="-1.836149">
       <ele>145</ele>
       <time>2023-09-30T16:35:42Z</time>
      </trkpt>
      <trkpt lat="52.364882" lon="-1.831381">
       <ele>141</ele>
       <time>2023-09-30T16:37:10Z</time>
      </trkpt>
      <trkpt lat="52.363397" lon="-1.829607">
       <ele>149</ele>
       <time>2023-09-30T16:37:48Z</time>
      </trkpt>
      <trkpt lat="52.364925" lon="-1.828760">
       <ele>146</ele>
       <time>2023-09-30T16:38:21Z</time>
      </trkpt>
      <trkpt lat="52.367676" lon="-1.826169">
       <ele>147</ele>
       <time>2023-09-30T16:39:27Z</time>
      </trkpt>
      <trkpt lat="52.368107" lon="-1.822345">
       <ele>146</ele>
       <time>2023-09-30T16:40:16Z</time>
      </trkpt>
      <trkpt lat="52.366711" lon="-1.821370">
       <ele>143</ele>
       <time>2023-09-30T16:40:48Z</time>
      </trkpt>
      <trkpt lat="52.366917" lon="-1.818619">
       <ele>139</ele>
       <time>2023-09-30T16:41:23Z</time>
      </trkpt>
      <trkpt lat="52.366395" lon="-1.813034">
       <ele>143</ele>
       <time>2023-09-30T16:42:34Z</time>
      </trkpt>
      <trkpt lat="52.371087" lon="-1.811594">
       <ele>143</ele>
       <time>2023-09-30T16:44:13Z</time>
      </trkpt>
      <trkpt lat="52.371090" lon="-1.811431">
       <ele>143</ele>
       <time>2023-09-30T16:44:15Z</time>
      </trkpt>
      <trkpt lat="52.368653" lon="-1.809827">
       <ele>144</ele>
       <time>2023-09-30T16:45:10Z</time>
      </trkpt>
      <trkpt lat="52.366438" lon="-1.807225">
       <ele>143</ele>
       <time>2023-09-30T16:46:06Z</time>
      </trkpt>
      <trkpt lat="52.366152" lon="-1.806773">
       <ele>142</ele>
       <time>2023-09-30T16:46:15Z</time>
      </trkpt>
      <trkpt lat="52.365957" lon="-1.804254">
       <ele>145</ele>
       <time>2023-09-30T16:46:47Z</time>
      </trkpt>
      <trkpt lat="52.367870" lon="-1.800340">
       <ele>143</ele>
       <time>2023-09-30T16:47:50Z</time>
      </trkpt>
      <trkpt lat="52.368160" lon="-1.799280">
       <ele>141</ele>
       <time>2023-09-30T16:48:05Z</time>
      </trkpt>
      <trkpt lat="52.368230" lon="-1.798140">
       <ele>136</ele>
       <time>2023-09-30T16:48:20Z</time>
      </trkpt>
      <trkpt lat="52.369570" lon="-1.798410">
       <ele>138</ele>
       <time>2023-09-30T16:48:48Z</time>
      </trkpt>
      <trkpt lat="52.370020" lon="-1.798710">
       <ele>138</ele>
       <time>2023-09-30T16:48:58Z</time>
      </trkpt>
      <trkpt lat="52.370790" lon="-1.798370">
       <ele>140</ele>
       <time>2023-09-30T16:49:14Z</time>
      </trkpt>
      <trkpt lat="52.371180" lon="-1.797990">
       <ele>139</ele>
       <time>2023-09-30T16:49:24Z</time>
      </trkpt>
      <trkpt lat="52.371860" lon="-1.796500">
       <ele>137</ele>
       <time>2023-09-30T16:49:47Z</time>
      </trkpt>
      <trkpt lat="52.372300" lon="-1.796000">
       <ele>135</ele>
       <time>2023-09-30T16:49:58Z</time>
      </trkpt>
      <trkpt lat="52.372400" lon="-1.795470">
       <ele>134</ele>
       <time>2023-09-30T16:50:05Z</time>
      </trkpt>
      <trkpt lat="52.372300" lon="-1.796000">
       <ele>135</ele>
       <time>2023-09-30T16:50:12Z</time>
      </trkpt>
      <trkpt lat="52.372910" lon="-1.795680">
       <ele>134</ele>
       <time>2023-09-30T16:50:26Z</time>
      </trkpt>
      <trkpt lat="52.375540" lon="-1.794950">
       <ele>132</ele>
       <time>2023-09-30T16:51:21Z</time>
      </trkpt>
      <trkpt lat="52.375670" lon="-1.795050">
       <ele>132</ele>
       <time>2023-09-30T16:51:24Z</time>
      </trkpt>
      <trkpt lat="52.376040" lon="-1.793330">
       <ele>130</ele>
       <time>2023-09-30T16:51:47Z</time>
      </trkpt>
      <trkpt lat="52.376390" lon="-1.792520">
       <ele>128</ele>
       <time>2023-09-30T16:51:59Z</time>
      </trkpt>
      <trkpt lat="52.376900" lon="-1.791860">
       <ele>128</ele>
       <time>2023-09-30T16:52:13Z</time>
      </trkpt>
      <trkpt lat="52.377700" lon="-1.791450">
       <ele>128</ele>
       <time>2023-09-30T16:52:30Z</time>
      </trkpt>
      <trkpt lat="52.377890" lon="-1.791020">
       <ele>128</ele>
       <time>2023-09-30T16:52:37Z</time>
      </trkpt>
      <trkpt lat="52.377580" lon="-1.790320">
       <ele>130</ele>
       <time>2023-09-30T16:52:48Z</time>
      </trkpt>
      <trkpt lat="52.376850" lon="-1.787000">
       <ele>134</ele>
       <time>2023-09-30T16:53:33Z</time>
      </trkpt>
      <trkpt lat="52.376670" lon="-1.785250">
       <ele>139</ele>
       <time>2023-09-30T16:53:55Z</time>
      </trkpt>
      <trkpt lat="52.377580" lon="-1.785110">
       <ele>137</ele>
       <time>2023-09-30T16:54:14Z</time>
      </trkpt>
      <trkpt lat="52.377750" lon="-1.782330">
       <ele>139</ele>
       <time>2023-09-30T16:54:49Z</time>
      </trkpt>
      <trkpt lat="52.377200" lon="-1.781790">
       <ele>139</ele>
       <time>2023-09-30T16:55:03Z</time>
      </trkpt>
      <trkpt lat="52.375120" lon="-1.781560">
       <ele>141</ele>
       <time>2023-09-30T16:55:46Z</time>
      </trkpt>
      <trkpt lat="52.374870" lon="-1.781180">
       <ele>137</ele>
       <time>2023-09-30T16:55:53Z</time>
      </trkpt>
      <trkpt lat="52.374880" lon="-1.779570">
       <ele>130</ele>
       <time>2023-09-30T16:56:13Z</time>
      </trkpt>
      <trkpt lat="52.375270" lon="-1.777320">
       <ele>130</ele>
       <time>2023-09-30T16:56:43Z</time>
      </trkpt>
      <trkpt lat="52.374560" lon="-1.768940">
       <ele>134</ele>
       <time>2023-09-30T16:58:30Z</time>
      </trkpt>
      <trkpt lat="52.375220" lon="-1.768430">
       <ele>133</ele>
       <time>2023-09-30T16:58:45Z</time>
      </trkpt>
      <trkpt lat="52.377360" lon="-1.765730">
       <ele>130</ele>
       <time>2023-09-30T16:59:41Z</time>
      </trkpt>
      <trkpt lat="52.378600" lon="-1.764560">
       <ele>131</ele>
       <time>2023-09-30T17:00:11Z</time>
      </trkpt>
      <trkpt lat="52.383150" lon="-1.762370">
       <ele>136</ele>
       <time>2023-09-30T17:01:49Z</time>
      </trkpt>
      <trkpt lat="52.384310" lon="-1.762180">
       <ele>139</ele>
       <time>2023-09-30T17:02:13Z</time>
      </trkpt>
      <trkpt lat="52.386510" lon="-1.762630">
       <ele>136</ele>
       <time>2023-09-30T17:02:59Z</time>
      </trkpt>
      <trkpt lat="52.386870" lon="-1.762990">
       <ele>136</ele>
       <time>2023-09-30T17:03:08Z</time>
      </trkpt>
      <trkpt lat="52.387010" lon="-1.762900">
       <ele>136</ele>
       <time>2023-09-30T17:03:11Z</time>
      </trkpt>
      <trkpt lat="52.387450" lon="-1.763130">
       <ele>136</ele>
       <time>2023-09-30T17:03:21Z</time>
      </trkpt>
      <trkpt lat="52.389450" lon="-1.765000">
       <ele>139</ele>
       <time>2023-09-30T17:04:09Z</time>
      </trkpt>
      <trkpt lat="52.390190" lon="-1.763580">
       <ele>136</ele>
       <time>2023-09-30T17:04:32Z</time>
      </trkpt>
      <trkpt lat="52.391160" lon="-1.762290">
       <ele>133</ele>
       <time>2023-09-30T17:04:58Z</time>
      </trkpt>
      <trkpt lat="52.391700" lon="-1.760820">
       <ele>133</ele>
       <time>2023-09-30T17:05:20Z</time>
      </trkpt>
      <trkpt lat="52.391850" lon="-1.758610">
       <ele>129</ele>
       <time>2023-09-30T17:05:48Z</time>
      </trkpt>
      <trkpt lat="52.391280" lon="-1.756470">
       <ele>125</ele>
       <time>2023-09-30T17:06:17Z</time>
      </trkpt>
      <trkpt lat="52.392030" lon="-1.755180">
       <ele>128</ele>
       <time>2023-09-30T17:06:40Z</time>
      </trkpt>
      <trkpt lat="52.389790" lon="-1.752900">
       <ele>135</ele>
       <time>2023-09-30T17:07:35Z</time>
      </trkpt>
      <trkpt lat="52.389750" lon="-1.741830">
       <ele>121</ele>
       <time>2023-09-30T17:09:55Z</time>
      </trkpt>
      <trkpt lat="52.389497" lon="-1.738439">
       <ele>128</ele>
       <time>2023-09-30T17:10:38Z</time>
      </trkpt>
      <trkpt lat="52.389279" lon="-1.738621">
       <ele>128</ele>
       <time>2023-09-30T17:10:43Z</time>
      </trkpt>
      <trkpt lat="52.388944" lon="-1.737457">
       <ele>130</ele>
       <time>2023-09-30T17:10:59Z</time>
      </trkpt>
      <trkpt lat="52.388336" lon="-1.737400">
       <ele>131</ele>
       <time>2023-09-30T17:11:12Z</time>
      </trkpt>
      <trkpt lat="52.387952" lon="-1.735788">
       <ele>130</ele>
       <time>2023-09-30T17:11:34Z</time>
      </trkpt>
      <trkpt lat="52.388245" lon="-1.734481">
       <ele>130</ele>
       <time>2023-09-30T17:11:51Z</time>
      </trkpt>
      <trkpt lat="52.387998" lon="-1.734057">
       <ele>130</ele>
       <time>2023-09-30T17:11:59Z</time>
      </trkpt>
      <trkpt lat="52.387524" lon="-1.731389">
       <ele>128</ele>
       <time>2023-09-30T17:12:34Z</time>
      </trkpt>
      <trkpt lat="52.386313" lon="-1.720879">
       <ele>123</ele>
       <time>2023-09-30T17:14:49Z</time>
      </trkpt>
      <trkpt lat="52.385794" lon="-1.719087">
       <ele>123</ele>
       <time>2023-09-30T17:15:15Z</time>
      </trkpt>
      <trkpt lat="52.385891" lon="-1.719218">
       <ele>123</ele>
       <time>2023-09-30T17:15:17Z</time>
      </trkpt>
      <trkpt lat="52.386841" lon="-1.719090">
       <ele>119</ele>
       <time>2023-09-30T17:15:37Z</time>
      </trkpt>
      <trkpt lat="52.387619" lon="-1.719409">
       <ele>120</ele>
       <time>2023-09-30T17:15:54Z</time>
      </trkpt>
      <trkpt lat="52.388838" lon="-1.719469">
       <ele>120</ele>
       <time>2023-09-30T17:16:19Z</time>
      </trkpt>
      <trkpt lat="52.389935" lon="-1.718296">
       <ele>116</ele>
       <time>2023-09-30T17:16:46Z</time>
      </trkpt>
      <trkpt lat="52.390598" lon="-1.718011">
       <ele>114</ele>
       <time>2023-09-30T17:17:00Z</time>
      </trkpt>
      <trkpt lat="52.391127" lon="-1.717498">
       <ele>113</ele>
       <time>2023-09-30T17:17:13Z</time>
      </trkpt>
      <trkpt lat="52.391927" lon="-1.715467">
       <ele>106</ele>
       <time>2023-09-30T17:17:44Z</time>
      </trkpt>
      <trkpt lat="52.392872" lon="-1.715166">
       <ele>105</ele>
       <time>2023-09-30T17:18:03Z</time>
      </trkpt>
      <trkpt lat="52.393043" lon="-1.714923">
       <ele>104</ele>
       <time>2023-09-30T17:18:08Z</time>
      </trkpt>
      <trkpt lat="52.393114" lon="-1.713508">
       <ele>103</ele>
       <time>2023-09-30T17:18:26Z</time>
      </trkpt>
      <trkpt lat="52.392655" lon="-1.710981">
       <ele>101</ele>
       <time>2023-09-30T17:19:00Z</time>
      </trkpt>
      <trkpt lat="52.393103" lon="-1.709618">
       <ele>100</ele>
       <time>2023-09-30T17:19:19Z</time>
      </trkpt>
      <trkpt lat="52.394198" lon="-1.708564">
       <ele>99</ele>
       <time>2023-09-30T17:19:45Z</time>
      </trkpt>
      <trkpt lat="52.394446" lon="-1.707287">
       <ele>100</ele>
       <time>2023-09-30T17:20:02Z</time>
      </trkpt>
      <trkpt lat="52.394005" lon="-1.700735">
       <ele>110</ele>
       <time>2023-09-30T17:21:26Z</time>
      </trkpt>
      <trkpt lat="52.395019" lon="-1.700980">
       <ele>110</ele>
       <time>2023-09-30T17:21:47Z</time>
      </trkpt>
      <trkpt lat="52.396683" lon="-1.701955">
       <ele>106</ele>
       <time>2023-09-30T17:22:24Z</time>
      </trkpt>
      <trkpt lat="52.398161" lon="-1.702293">
       <ele>102</ele>
       <time>2023-09-30T17:22:55Z</time>
      </trkpt>
      <trkpt lat="52.401049" lon="-1.698608">
       <ele>119</ele>
       <time>2023-09-30T17:24:11Z</time>
      </trkpt>
      <trkpt lat="52.400354" lon="-1.697144">
       <ele>121</ele>
       <time>2023-09-30T17:24:34Z</time>
      </trkpt>
      <trkpt lat="52.400160" lon="-1.696290">
       <ele>119</ele>
       <time>2023-09-30T17:24:45Z</time>
      </trkpt>
      <trkpt lat="52.400460" lon="-1.692260">
       <ele>107</ele>
       <time>2023-09-30T17:25:37Z</time>
      </trkpt>
      <trkpt lat="52.400730" lon="-1.690260">
       <ele>106</ele>
       <time>2023-09-30T17:26:03Z</time>
      </trkpt>
      <trkpt lat="52.401320" lon="-1.688100">
       <ele>99</ele>
       <time>2023-09-30T17:26:33Z</time>
      </trkpt>
      <trkpt lat="52.403080" lon="-1.683730">
       <ele>93</ele>
       <time>2023-09-30T17:27:39Z</time>
      </trkpt>
      <trkpt lat="52.403170" lon="-1.682200">
       <ele>93</ele>
       <time>2023-09-30T17:27:58Z</time>
      </trkpt>
      <trkpt lat="52.402850" lon="-1.680160">
       <ele>95</ele>
       <time>2023-09-30T17:28:25Z</time>
      </trkpt>
      <trkpt lat="52.402860" lon="-1.679020">
       <ele>96</ele>
       <time>2023-09-30T17:28:39Z</time>
      </trkpt>
      <trkpt lat="52.401720" lon="-1.673930">
       <ele>112</ele>
       <time>2023-09-30T17:29:48Z</time>
      </trkpt>
      <trkpt lat="52.402500" lon="-1.671760">
       <ele>112</ele>
       <time>2023-09-30T17:30:20Z</time>
      </trkpt>
      <trkpt lat="52.404090" lon="-1.668930">
       <ele>101</ele>
       <time>2023-09-30T17:31:09Z</time>
      </trkpt>
      <trkpt lat="52.404810" lon="-1.664460">
       <ele>105</ele>
       <time>2023-09-30T17:32:07Z</time>
      </trkpt>
      <trkpt lat="52.404600" lon="-1.663110">
       <ele>108</ele>
       <time>2023-09-30T17:32:25Z</time>
      </trkpt>
      <trkpt lat="52.403250" lon="-1.660530">
       <ele>112</ele>
       <time>2023-09-30T17:33:08Z</time>
      </trkpt>
      <trkpt lat="52.403030" lon="-1.658620">
       <ele>112</ele>
       <time>2023-09-30T17:33:32Z</time>
      </trkpt>
      <trkpt lat="52.405020" lon="-1.660030">
       <ele>116</ele>
       <time>2023-09-30T17:34:17Z</time>
      </trkpt>
      <trkpt lat="52.405140" lon="-1.659390">
       <ele>117</ele>
       <time>2023-09-30T17:34:26Z</time>
      </trkpt>
      <trkpt lat="52.404370" lon="-1.652620">
       <ele>112</ele>
       <time>2023-09-30T17:35:53Z</time>
      </trkpt>
      <trkpt lat="52.403780" lon="-1.650370">
       <ele>108</ele>
       <time>2023-09-30T17:36:24Z</time>
      </trkpt>
      <trkpt lat="52.402590" lon="-1.647170">
       <ele>106</ele>
       <time>2023-09-30T17:37:11Z</time>
      </trkpt>
      <trkpt lat="52.406750" lon="-1.644530">
       <ele>113</ele>
       <time>2023-09-30T17:38:44Z</time>
      </trkpt>
      <trkpt lat="52.407780" lon="-1.643671">
       <ele>113</ele>
       <time>2023-09-30T17:39:08Z</time>
      </trkpt>
      <trkpt lat="52.409122" lon="-1.641409">
       <ele>110</ele>
       <time>2023-09-30T17:39:48Z</time>
      </trkpt>
      <trkpt lat="52.409595" lon="-1.639966">
       <ele>116</ele>
       <time>2023-09-30T17:40:08Z</time>
      </trkpt>
      <trkpt lat="52.410482" lon="-1.636115">
       <ele>131</ele>
       <time>2023-09-30T17:41:00Z</time>
      </trkpt>
      <trkpt lat="52.411006" lon="-1.632126">
       <ele>144</ele>
       <time>2023-09-30T17:41:52Z</time>
      </trkpt>
      <trkpt lat="52.413233" lon="-1.624631">
       <ele>145</ele>
       <time>2023-09-30T17:43:37Z</time>
      </trkpt>
      <trkpt lat="52.415175" lon="-1.615650">
       <ele>131</ele>
       <time>2023-09-30T17:45:38Z</time>
      </trkpt>
      <trkpt lat="52.415570" lon="-1.611878">
       <ele>132</ele>
       <time>2023-09-30T17:46:26Z</time>
      </trkpt>
      <trkpt lat="52.415893" lon="-1.604098">
       <ele>123</ele>
       <time>2023-09-30T17:48:05Z</time>
      </trkpt>
      <trkpt lat="52.415722" lon="-1.602390">
       <ele>122</ele>
       <time>2023-09-30T17:48:27Z</time>
      </trkpt>
      <trkpt lat="52.415174" lon="-1.600859">
       <ele>123</ele>
       <time>2023-09-30T17:48:49Z</time>
      </trkpt>
      <trkpt lat="52.417111" lon="-1.599907">
       <ele>128</ele>
       <time>2023-09-30T17:49:31Z</time>
      </trkpt>
      <trkpt lat="52.421826" lon="-1.598200">
       <ele>130</ele>
       <time>2023-09-30T17:51:11Z</time>
      </trkpt>
      <trkpt lat="52.425231" lon="-1.598970">
       <ele>122</ele>
       <time>2023-09-30T17:52:23Z</time>
      </trkpt>
      <trkpt lat="52.427195" lon="-1.598361">
       <ele>128</ele>
       <time>2023-09-30T17:53:04Z</time>
      </trkpt>
      <trkpt lat="52.428452" lon="-1.597654">
       <ele>134</ele>
       <time>2023-09-30T17:53:32Z</time>
      </trkpt>
      <trkpt lat="52.428788" lon="-1.597915">
       <ele>134</ele>
       <time>2023-09-30T17:53:39Z</time>
      </trkpt>
      <trkpt lat="52.429432" lon="-1.601079">
       <ele>137</ele>
       <time>2023-09-30T17:54:21Z</time>
      </trkpt>
      <trkpt lat="52.431452" lon="-1.600834">
       <ele>137</ele>
       <time>2023-09-30T17:55:03Z</time>
      </trkpt>
      <trkpt lat="52.432828" lon="-1.599996">
       <ele>134</ele>
       <time>2023-09-30T17:55:34Z</time>
      </trkpt>
      <trkpt lat="52.433016" lon="-1.600072">
       <ele>134</ele>
       <time>2023-09-30T17:55:38Z</time>
      </trkpt>
      <trkpt lat="52.433109" lon="-1.600550">
       <ele>134</ele>
       <time>2023-09-30T17:55:44Z</time>
      </trkpt>
      <trkpt lat="52.433629" lon="-1.600124">
       <ele>131</ele>
       <time>2023-09-30T17:55:56Z</time>
      </trkpt>
      <trkpt lat="52.433645" lon="-1.599325">
       <ele>129</ele>
       <time>2023-09-30T17:56:06Z</time>
      </trkpt>
      <trkpt lat="52.433745" lon="-1.599235">
       <ele>129</ele>
       <time>2023-09-30T17:56:09Z</time>
      </trkpt>
      <trkpt lat="52.433874" lon="-1.599559">
       <ele>129</ele>
       <time>2023-09-30T17:56:14Z</time>
      </trkpt>
      <trkpt lat="52.434165" lon="-1.599457">
       <ele>127</ele>
       <time>2023-09-30T17:56:20Z</time>
      </trkpt>
      <trkpt lat="52.434219" lon="-1.599575">
       <ele>127</ele>
       <time>2023-09-30T17:56:22Z</time>
      </trkpt>
      <trkpt lat="52.435419" lon="-1.597988">
       <ele>124</ele>
       <time>2023-09-30T17:56:54Z</time>
      </trkpt>
      <trkpt lat="52.436315" lon="-1.595575">
       <ele>117</ele>
       <time>2023-09-30T17:57:29Z</time>
      </trkpt>
      <trkpt lat="52.436775" lon="-1.594953">
       <ele>119</ele>
       <time>2023-09-30T17:57:42Z</time>
      </trkpt>
      <trkpt lat="52.437419" lon="-1.591538">
       <ele>129</ele>
       <time>2023-09-30T17:58:27Z</time>
      </trkpt>
      <trkpt lat="52.438648" lon="-1.589715">
       <ele>134</ele>
       <time>2023-09-30T17:59:01Z</time>
      </trkpt>
      <trkpt lat="52.438749" lon="-1.588460">
       <ele>134</ele>
       <time>2023-09-30T17:59:17Z</time>
      </trkpt>
      <trkpt lat="52.439089" lon="-1.587606">
       <ele>135</ele>
       <time>2023-09-30T17:59:30Z</time>
      </trkpt>
      <trkpt lat="52.441387" lon="-1.583192">
       <ele>140</ele>
       <time>2023-09-30T18:00:44Z</time>
      </trkpt>
      <trkpt lat="52.442132" lon="-1.579705">
       <ele>129</ele>
       <time>2023-09-30T18:01:30Z</time>
      </trkpt>
      <trkpt lat="52.442122" lon="-1.576664">
       <ele>124</ele>
       <time>2023-09-30T18:02:09Z</time>
      </trkpt>
      <trkpt lat="52.442499" lon="-1.573293">
       <ele>124</ele>
       <time>2023-09-30T18:02:52Z</time>
      </trkpt>
      <trkpt lat="52.442292" lon="-1.572700">
       <ele>124</ele>
       <time>2023-09-30T18:03:01Z</time>
      </trkpt>
      <trkpt lat="52.442573" lon="-1.572398">
       <ele>125</ele>
       <time>2023-09-30T18:03:08Z</time>
      </trkpt>
      <trkpt lat="52.445444" lon="-1.571445">
       <ele>127</ele>
       <time>2023-09-30T18:04:08Z</time>
      </trkpt>
      <trkpt lat="52.445912" lon="-1.571585">
       <ele>128</ele>
       <time>2023-09-30T18:04:18Z</time>
      </trkpt>
      <trkpt lat="52.446862" lon="-1.572222">
       <ele>126</ele>
       <time>2023-09-30T18:04:39Z</time>
      </trkpt>
      <trkpt lat="52.447661" lon="-1.573840">
       <ele>128</ele>
       <time>2023-09-30T18:05:06Z</time>
      </trkpt>
      <trkpt lat="52.449035" lon="-1.574475">
       <ele>128</ele>
       <time>2023-09-30T18:05:35Z</time>
      </trkpt>
      <trkpt lat="52.449625" lon="-1.575116">
       <ele>129</ele>
       <time>2023-09-30T18:05:50Z</time>
      </trkpt>
      <trkpt lat="52.450856" lon="-1.574867">
       <ele>130</ele>
       <time>2023-09-30T18:06:16Z</time>
      </trkpt>
      <trkpt lat="52.451726" lon="-1.573871">
       <ele>134</ele>
       <time>2023-09-30T18:06:38Z</time>
      </trkpt>
      <trkpt lat="52.452764" lon="-1.573436">
       <ele>142</ele>
       <time>2023-09-30T18:07:00Z</time>
      </trkpt>
      <trkpt lat="52.455464" lon="-1.575664">
       <ele>154</ele>
       <time>2023-09-30T18:08:03Z</time>
      </trkpt>
      <trkpt lat="52.456598" lon="-1.578115">
       <ele>159</ele>
       <time>2023-09-30T18:08:42Z</time>
      </trkpt>
      <trkpt lat="52.457645" lon="-1.578445">
       <ele>160</ele>
       <time>2023-09-30T18:09:04Z</time>
      </trkpt>
      <trkpt lat="52.458212" lon="-1.579085">
       <ele>163</ele>
       <time>2023-09-30T18:09:18Z</time>
      </trkpt>
      <trkpt lat="52.459572" lon="-1.579510">
       <ele>164</ele>
       <time>2023-09-30T18:09:47Z</time>
      </trkpt>
      <trkpt lat="52.460002" lon="-1.579074">
       <ele>165</ele>
       <time>2023-09-30T18:09:57Z</time>
      </trkpt>
      <trkpt lat="52.460485" lon="-1.579126">
       <ele>166</ele>
       <time>2023-09-30T18:10:07Z</time>
      </trkpt>
      <trkpt lat="52.461674" lon="-1.578723">
       <ele>168</ele>
       <time>2023-09-30T18:10:32Z</time>
      </trkpt>
      <trkpt lat="52.462224" lon="-1.577841">
       <ele>170</ele>
       <time>2023-09-30T18:10:48Z</time>
      </trkpt>
      <trkpt lat="52.462655" lon="-1.577673">
       <ele>173</ele>
       <time>2023-09-30T18:10:57Z</time>
      </trkpt>
      <trkpt lat="52.462748" lon="-1.577199">
       <ele>172</ele>
       <time>2023-09-30T18:11:04Z</time>
      </trkpt>
      <trkpt lat="52.463697" lon="-1.575960">
       <ele>171</ele>
       <time>2023-09-30T18:11:29Z</time>
      </trkpt>
      <trkpt lat="52.464027" lon="-1.575163">
       <ele>172</ele>
       <time>2023-09-30T18:11:41Z</time>
      </trkpt>
      <trkpt lat="52.464350" lon="-1.572430">
       <ele>168</ele>
       <time>2023-09-30T18:12:16Z</time>
      </trkpt>
      <trkpt lat="52.463898" lon="-1.569393">
       <ele>173</ele>
       <time>2023-09-30T18:12:56Z</time>
      </trkpt>
      <trkpt lat="52.464048" lon="-1.567925">
       <ele>176</ele>
       <time>2023-09-30T18:13:14Z</time>
      </trkpt>
      <trkpt lat="52.465322" lon="-1.567519">
       <ele>170</ele>
       <time>2023-09-30T18:13:41Z</time>
      </trkpt>
      <trkpt lat="52.466451" lon="-1.567883">
       <ele>166</ele>
       <time>2023-09-30T18:14:05Z</time>
      </trkpt>
      <trkpt lat="52.467495" lon="-1.567395">
       <ele>158</ele>
       <time>2023-09-30T18:14:28Z</time>
      </trkpt>
      <trkpt lat="52.468166" lon="-1.567363">
       <ele>155</ele>
       <time>2023-09-30T18:14:42Z</time>
      </trkpt>
      <trkpt lat="52.471203" lon="-1.568603">
       <ele>146</ele>
       <time>2023-09-30T18:15:47Z</time>
      </trkpt>
      <trkpt lat="52.471821" lon="-1.569112">
       <ele>147</ele>
       <time>2023-09-30T18:16:01Z</time>
      </trkpt>
      <trkpt lat="52.473711" lon="-1.567301">
       <ele>144</ele>
       <time>2023-09-30T18:16:46Z</time>
      </trkpt>
      <trkpt lat="52.474842" lon="-1.565127">
       <ele>139</ele>
       <time>2023-09-30T18:17:22Z</time>
      </trkpt>
      <trkpt lat="52.476552" lon="-1.563062">
       <ele>134</ele>
       <time>2023-09-30T18:18:06Z</time>
      </trkpt>
      <trkpt lat="52.477178" lon="-1.561533">
       <ele>133</ele>
       <time>2023-09-30T18:18:30Z</time>
      </trkpt>
      <trkpt lat="52.478511" lon="-1.560476">
       <ele>136</ele>
       <time>2023-09-30T18:19:00Z</time>
      </trkpt>
      <trkpt lat="52.479041" lon="-1.560378">
       <ele>139</ele>
       <time>2023-09-30T18:19:11Z</time>
      </trkpt>
      <trkpt lat="52.480333" lon="-1.560598">
       <ele>146</ele>
       <time>2023-09-30T18:19:38Z</time>
      </trkpt>
      <trkpt lat="52.481485" lon="-1.561383">
       <ele>151</ele>
       <time>2023-09-30T18:20:04Z</time>
      </trkpt>
      <trkpt lat="52.481190" lon="-1.562732">
       <ele>150</ele>
       <time>2023-09-30T18:20:22Z</time>
      </trkpt>
      <trkpt lat="52.481235" lon="-1.563876">
       <ele>151</ele>
       <time>2023-09-30T18:20:37Z</time>
      </trkpt>
      <trkpt lat="52.482198" lon="-1.565311">
       <ele>151</ele>
       <time>2023-09-30T18:21:04Z</time>
      </trkpt>
      <trkpt lat="52.482169" lon="-1.566979">
       <ele>150</ele>
       <time>2023-09-30T18:21:25Z</time>
      </trkpt>
      <trkpt lat="52.482368" lon="-1.567415">
       <ele>151</ele>
       <time>2023-09-30T18:21:32Z</time>
      </trkpt>
      <trkpt lat="52.485113" lon="-1.567105">
       <ele>149</ele>
       <time>2023-09-30T18:22:29Z</time>
      </trkpt>
      <trkpt lat="52.486573" lon="-1.568406">
       <ele>149</ele>
       <time>2023-09-30T18:23:03Z</time>
      </trkpt>
      <trkpt lat="52.488663" lon="-1.569530">
       <ele>153</ele>
       <time>2023-09-30T18:23:49Z</time>
      </trkpt>
      <trkpt lat="52.490096" lon="-1.570563">
       <ele>155</ele>
       <time>2023-09-30T18:24:21Z</time>
      </trkpt>
      <trkpt lat="52.490215" lon="-1.570377">
       <ele>155</ele>
       <time>2023-09-30T18:24:25Z</time>
      </trkpt>
      <trkpt lat="52.492423" lon="-1.571390">
       <ele>154</ele>
       <time>2023-09-30T18:25:12Z</time>
      </trkpt>
      <trkpt lat="52.493397" lon="-1.573553">
       <ele>151</ele>
       <time>2023-09-30T18:25:46Z</time>
      </trkpt>
      <trkpt lat="52.494118" lon="-1.576089">
       <ele>151</ele>
       <time>2023-09-30T18:26:21Z</time>
      </trkpt>
      <trkpt lat="52.494609" lon="-1.576893">
       <ele>146</ele>
       <time>2023-09-30T18:26:36Z</time>
      </trkpt>
      <trkpt lat="52.495083" lon="-1.577059">
       <ele>142</ele>
       <time>2023-09-30T18:26:46Z</time>
      </trkpt>
      <trkpt lat="52.497649" lon="-1.576976">
       <ele>132</ele>
       <time>2023-09-30T18:27:39Z</time>
      </trkpt>
      <trkpt lat="52.498247" lon="-1.577412">
       <ele>131</ele>
       <time>2023-09-30T18:27:53Z</time>
      </trkpt>
      <trkpt lat="52.499033" lon="-1.578876">
       <ele>136</ele>
       <time>2023-09-30T18:28:17Z</time>
      </trkpt>
      <trkpt lat="52.499453" lon="-1.579253">
       <ele>140</ele>
       <time>2023-09-30T18:28:27Z</time>
      </trkpt>
      <trkpt lat="52.499898" lon="-1.579371">
       <ele>143</ele>
       <time>2023-09-30T18:28:37Z</time>
      </trkpt>
      <trkpt lat="52.501392" lon="-1.579054">
       <ele>151</ele>
       <time>2023-09-30T18:29:08Z</time>
      </trkpt>
      <trkpt lat="52.503062" lon="-1.582530">
       <ele>141</ele>
       <time>2023-09-30T18:30:04Z</time>
      </trkpt>
      <trkpt lat="52.504541" lon="-1.583085">
       <ele>128</ele>
       <time>2023-09-30T18:30:35Z</time>
      </trkpt>
      <trkpt lat="52.506685" lon="-1.584482">
       <ele>116</ele>
       <time>2023-09-30T18:31:23Z</time>
      </trkpt>
      <trkpt lat="52.507347" lon="-1.585510">
       <ele>114</ele>
       <time>2023-09-30T18:31:42Z</time>
      </trkpt>
      <trkpt lat="52.507642" lon="-1.586650">
       <ele>116</ele>
       <time>2023-09-30T18:31:58Z</time>
      </trkpt>
      <trkpt lat="52.510090" lon="-1.585810">
       <ele>123</ele>
       <time>2023-09-30T18:32:49Z</time>
      </trkpt>
      <trkpt lat="52.511102" lon="-1.585210">
       <ele>128</ele>
       <time>2023-09-30T18:33:12Z</time>
      </trkpt>
      <trkpt lat="52.512737" lon="-1.584733">
       <ele>137</ele>
       <time>2023-09-30T18:33:46Z</time>
      </trkpt>
      <trkpt lat="52.514187" lon="-1.583228">
       <ele>144</ele>
       <time>2023-09-30T18:34:22Z</time>
      </trkpt>
      <trkpt lat="52.514363" lon="-1.581471">
       <ele>148</ele>
       <time>2023-09-30T18:34:44Z</time>
      </trkpt>
      <trkpt lat="52.515241" lon="-1.579576">
       <ele>143</ele>
       <time>2023-09-30T18:35:14Z</time>
      </trkpt>
      <trkpt lat="52.516665" lon="-1.578961">
       <ele>127</ele>
       <time>2023-09-30T18:35:45Z</time>
      </trkpt>
      <trkpt lat="52.517786" lon="-1.577203">
       <ele>127</ele>
       <time>2023-09-30T18:36:17Z</time>
      </trkpt>
      <trkpt lat="52.520256" lon="-1.575343">
       <ele>147</ele>
       <time>2023-09-30T18:37:13Z</time>
      </trkpt>
      <trkpt lat="52.520621" lon="-1.575160">
       <ele>149</ele>
       <time>2023-09-30T18:37:21Z</time>
      </trkpt>
      <trkpt lat="52.521004" lon="-1.575779">
       <ele>148</ele>
       <time>2023-09-30T18:37:32Z</time>
      </trkpt>
      <trkpt lat="52.522029" lon="-1.576616">
       <ele>147</ele>
       <time>2023-09-30T18:37:56Z</time>
      </trkpt>
      <trkpt lat="52.522621" lon="-1.576707">
       <ele>148</ele>
       <time>2023-09-30T18:38:08Z</time>
      </trkpt>
      <trkpt lat="52.523839" lon="-1.578066">
       <ele>152</ele>
       <time>2023-09-30T18:38:39Z</time>
      </trkpt>
      <trkpt lat="52.524490" lon="-1.577210">
       <ele>154</ele>
       <time>2023-09-30T18:38:56Z</time>
      </trkpt>
      <trkpt lat="52.526124" lon="-1.577670">
       <ele>151</ele>
       <time>2023-09-30T18:39:30Z</time>
      </trkpt>
      <trkpt lat="52.527454" lon="-1.574723">
       <ele>147</ele>
       <time>2023-09-30T18:40:17Z</time>
      </trkpt>
      <trkpt lat="52.528716" lon="-1.573941">
       <ele>146</ele>
       <time>2023-09-30T18:40:45Z</time>
      </trkpt>
      <trkpt lat="52.529989" lon="-1.573505">
       <ele>147</ele>
       <time>2023-09-30T18:41:12Z</time>
      </trkpt>
      <trkpt lat="52.530838" lon="-1.572561">
       <ele>147</ele>
       <time>2023-09-30T18:41:33Z</time>
      </trkpt>
      <trkpt lat="52.531674" lon="-1.576149">
       <ele>146</ele>
       <time>2023-09-30T18:42:21Z</time>
      </trkpt>
      <trkpt lat="52.532816" lon="-1.577739">
       <ele>154</ele>
       <time>2023-09-30T18:42:52Z</time>
      </trkpt>
      <trkpt lat="52.532915" lon="-1.579125">
       <ele>158</ele>
       <time>2023-09-30T18:43:10Z</time>
      </trkpt>
      <trkpt lat="52.533937" lon="-1.580406">
       <ele>160</ele>
       <time>2023-09-30T18:43:37Z</time>
      </trkpt>
      <trkpt lat="52.534145" lon="-1.580510">
       <ele>161</ele>
       <time>2023-09-30T18:43:41Z</time>
      </trkpt>
      <trkpt lat="52.534523" lon="-1.579800">
       <ele>162</ele>
       <time>2023-09-30T18:43:53Z</time>
      </trkpt>
      <trkpt lat="52.534744" lon="-1.579778">
       <ele>162</ele>
       <time>2023-09-30T18:43:58Z</time>
      </trkpt>
      <trkpt lat="52.535174" lon="-1.580064">
       <ele>163</ele>
       <time>2023-09-30T18:44:07Z</time>
      </trkpt>
      <trkpt lat="52.535963" lon="-1.581195">
       <ele>165</ele>
       <time>2023-09-30T18:44:29Z</time>
      </trkpt>
      <trkpt lat="52.536355" lon="-1.581368">
       <ele>165</ele>
       <time>2023-09-30T18:44:37Z</time>
      </trkpt>
      <trkpt lat="52.538030" lon="-1.580647">
       <ele>166</ele>
       <time>2023-09-30T18:45:13Z</time>
      </trkpt>
      <trkpt lat="52.539062" lon="-1.581796">
       <ele>167</ele>
       <time>2023-09-30T18:45:39Z</time>
      </trkpt>
      <trkpt lat="52.540705" lon="-1.584539">
       <ele>157</ele>
       <time>2023-09-30T18:46:28Z</time>
      </trkpt>
      <trkpt lat="52.541840" lon="-1.585949">
       <ele>156</ele>
       <time>2023-09-30T18:46:57Z</time>
      </trkpt>
      <trkpt lat="52.543258" lon="-1.587349">
       <ele>156</ele>
       <time>2023-09-30T18:47:32Z</time>
      </trkpt>
      <trkpt lat="52.543700" lon="-1.588055">
       <ele>153</ele>
       <time>2023-09-30T18:47:44Z</time>
      </trkpt>
      <trkpt lat="52.544577" lon="-1.588696">
       <ele>150</ele>
       <time>2023-09-30T18:48:04Z</time>
      </trkpt>
      <trkpt lat="52.545217" lon="-1.589467">
       <ele>148</ele>
       <time>2023-09-30T18:48:21Z</time>
      </trkpt>
      <trkpt lat="52.545295" lon="-1.590360">
       <ele>147</ele>
       <time>2023-09-30T18:48:32Z</time>
      </trkpt>
      <trkpt lat="52.547620" lon="-1.594137">
       <ele>148</ele>
       <time>2023-09-30T18:49:40Z</time>
      </trkpt>
      <trkpt lat="52.548259" lon="-1.594615">
       <ele>146</ele>
       <time>2023-09-30T18:49:54Z</time>
      </trkpt>
      <trkpt lat="52.549405" lon="-1.594900">
       <ele>148</ele>
       <time>2023-09-30T18:50:18Z</time>
      </trkpt>
      <trkpt lat="52.549283" lon="-1.596195">
       <ele>150</ele>
       <time>2023-09-30T18:50:35Z</time>
      </trkpt>
      <trkpt lat="52.550513" lon="-1.596896">
       <ele>151</ele>
       <time>2023-09-30T18:51:02Z</time>
      </trkpt>
      <trkpt lat="52.550456" lon="-1.597859">
       <ele>152</ele>
       <time>2023-09-30T18:51:14Z</time>
      </trkpt>
      <trkpt lat="52.550050" lon="-1.598804">
       <ele>153</ele>
       <time>2023-09-30T18:51:29Z</time>
      </trkpt>
      <trkpt lat="52.549966" lon="-1.600257">
       <ele>154</ele>
       <time>2023-09-30T18:51:47Z</time>
      </trkpt>
      <trkpt lat="52.549575" lon="-1.601791">
       <ele>155</ele>
       <time>2023-09-30T18:52:08Z</time>
      </trkpt>
      <trkpt lat="52.550046" lon="-1.602701">
       <ele>155</ele>
       <time>2023-09-30T18:52:23Z</time>
      </trkpt>
      <trkpt lat="52.549597" lon="-1.605084">
       <ele>148</ele>
       <time>2023-09-30T18:52:55Z</time>
      </trkpt>
      <trkpt lat="52.550069" lon="-1.614856">
       <ele>116</ele>
       <time>2023-09-30T18:54:58Z</time>
      </trkpt>
      <trkpt lat="52.550433" lon="-1.616545">
       <ele>112</ele>
       <time>2023-09-30T18:55:21Z</time>
      </trkpt>
      <trkpt lat="52.553818" lon="-1.618746">
       <ele>109</ele>
       <time>2023-09-30T18:56:36Z</time>
      </trkpt>
      <trkpt lat="52.553070" lon="-1.621088">
       <ele>107</ele>
       <time>2023-09-30T18:57:10Z</time>
      </trkpt>
      <trkpt lat="52.551842" lon="-1.628627">
       <ele>91</ele>
       <time>2023-09-30T18:58:48Z</time>
      </trkpt>
      <trkpt lat="52.550376" lon="-1.631052">
       <ele>88</ele>
       <time>2023-09-30T18:59:31Z</time>
      </trkpt>
      <trkpt lat="52.550062" lon="-1.633477">
       <ele>85</ele>
       <time>2023-09-30T19:00:02Z</time>
      </trkpt>
      <trkpt lat="52.550413" lon="-1.634153">
       <ele>85</ele>
       <time>2023-09-30T19:00:14Z</time>
      </trkpt>
      <trkpt lat="52.551000" lon="-1.634724">
       <ele>88</ele>
       <time>2023-09-30T19:00:28Z</time>
      </trkpt>
      <trkpt lat="52.550309" lon="-1.637967">
       <ele>91</ele>
       <time>2023-09-30T19:01:11Z</time>
      </trkpt>
      <trkpt lat="52.549433" lon="-1.639458">
       <ele>87</ele>
       <time>2023-09-30T19:01:37Z</time>
      </trkpt>
      <trkpt lat="52.549257" lon="-1.640815">
       <ele>85</ele>
       <time>2023-09-30T19:01:55Z</time>
      </trkpt>
      <trkpt lat="52.549233" lon="-1.643940">
       <ele>89</ele>
       <time>2023-09-30T19:02:34Z</time>
      </trkpt>
      <trkpt lat="52.550489" lon="-1.647985">
       <ele>90</ele>
       <time>2023-09-30T19:03:31Z</time>
      </trkpt>
      <trkpt lat="52.550395" lon="-1.650771">
       <ele>83</ele>
       <time>2023-09-30T19:04:06Z</time>
      </trkpt>
      <trkpt lat="52.550566" lon="-1.651593">
       <ele>83</ele>
       <time>2023-09-30T19:04:17Z</time>
      </trkpt>
      <trkpt lat="52.551160" lon="-1.652870">
       <ele>83</ele>
       <time>2023-09-30T19:04:38Z</time>
      </trkpt>
      <trkpt lat="52.551045" lon="-1.654956">
       <ele>80</ele>
       <time>2023-09-30T19:05:04Z</time>
      </trkpt>
      <trkpt lat="52.551422" lon="-1.656195">
       <ele>83</ele>
       <time>2023-09-30T19:05:22Z</time>
      </trkpt>
      <trkpt lat="52.551551" lon="-1.657715">
       <ele>82</ele>
       <time>2023-09-30T19:05:41Z</time>
      </trkpt>
      <trkpt lat="52.551127" lon="-1.659969">
       <ele>78</ele>
       <time>2023-09-30T19:06:11Z</time>
      </trkpt>
      <trkpt lat="52.551274" lon="-1.661132">
       <ele>78</ele>
       <time>2023-09-30T19:06:26Z</time>
      </trkpt>
      <trkpt lat="52.551141" lon="-1.662112">
       <ele>77</ele>
       <time>2023-09-30T19:06:38Z</time>
      </trkpt>
      <trkpt lat="52.550201" lon="-1.664331">
       <ele>74</ele>
       <time>2023-09-30T19:07:12Z</time>
      </trkpt>
      <trkpt lat="52.550306" lon="-1.666965">
       <ele>71</ele>
       <time>2023-09-30T19:07:46Z</time>
      </trkpt>
      <trkpt lat="52.551224" lon="-1.669386">
       <ele>69</ele>
       <time>2023-09-30T19:08:22Z</time>
      </trkpt>
      <trkpt lat="52.550846" lon="-1.673804">
       <ele>68</ele>
       <time>2023-09-30T19:09:18Z</time>
      </trkpt>
      <trkpt lat="52.551470" lon="-1.673895">
       <ele>70</ele>
       <time>2023-09-30T19:09:31Z</time>
      </trkpt>
      <trkpt lat="52.553124" lon="-1.675051">
       <ele>68</ele>
       <time>2023-09-30T19:10:08Z</time>
      </trkpt>
      <trkpt lat="52.554109" lon="-1.674831">
       <ele>68</ele>
       <time>2023-09-30T19:10:29Z</time>
      </trkpt>
      <trkpt lat="52.554698" lon="-1.675136">
       <ele>68</ele>
       <time>2023-09-30T19:10:42Z</time>
      </trkpt>
      <trkpt lat="52.555601" lon="-1.676317">
       <ele>69</ele>
       <time>2023-09-30T19:11:06Z</time>
      </trkpt>
      <trkpt lat="52.556330" lon="-1.678729">
       <ele>69</ele>
       <time>2023-09-30T19:11:39Z</time>
      </trkpt>
      <trkpt lat="52.557742" lon="-1.679809">
       <ele>70</ele>
       <time>2023-09-30T19:12:12Z</time>
      </trkpt>
      <trkpt lat="52.558113" lon="-1.680782">
       <ele>70</ele>
       <time>2023-09-30T19:12:26Z</time>
      </trkpt>
      <trkpt lat="52.558613" lon="-1.680932">
       <ele>70</ele>
       <time>2023-09-30T19:12:37Z</time>
      </trkpt>
      <trkpt lat="52.559043" lon="-1.681708">
       <ele>69</ele>
       <time>2023-09-30T19:12:50Z</time>
      </trkpt>
      <trkpt lat="52.559432" lon="-1.682016">
       <ele>68</ele>
       <time>2023-09-30T19:12:59Z</time>
      </trkpt>
      <trkpt lat="52.558473" lon="-1.683845">
       <ele>66</ele>
       <time>2023-09-30T19:13:29Z</time>
      </trkpt>
      <trkpt lat="52.558514" lon="-1.685074">
       <ele>65</ele>
       <time>2023-09-30T19:13:45Z</time>
      </trkpt>
      <trkpt lat="52.557707" lon="-1.686791">
       <ele>67</ele>
       <time>2023-09-30T19:14:12Z</time>
      </trkpt>
      <trkpt lat="52.557222" lon="-1.687283">
       <ele>68</ele>
       <time>2023-09-30T19:14:24Z</time>
      </trkpt>
      <trkpt lat="52.557005" lon="-1.688409">
       <ele>68</ele>
       <time>2023-09-30T19:14:39Z</time>
      </trkpt>
      <trkpt lat="52.556526" lon="-1.689196">
       <ele>68</ele>
       <time>2023-09-30T19:14:53Z</time>
      </trkpt>
      <trkpt lat="52.556933" lon="-1.690087">
       <ele>67</ele>
       <time>2023-09-30T19:15:07Z</time>
      </trkpt>
      <trkpt lat="52.555990" lon="-1.692487">
       <ele>68</ele>
       <time>2023-09-30T19:15:43Z</time>
      </trkpt>
      <trkpt lat="52.557268" lon="-1.694565">
       <ele>67</ele>
       <time>2023-09-30T19:16:20Z</time>
      </trkpt>
      <trkpt lat="52.558900" lon="-1.696258">
       <ele>67</ele>
       <time>2023-09-30T19:17:00Z</time>
      </trkpt>
      <trkpt lat="52.558766" lon="-1.697109">
       <ele>69</ele>
       <time>2023-09-30T19:17:11Z</time>
      </trkpt>
      <trkpt lat="52.559055" lon="-1.697362">
       <ele>69</ele>
       <time>2023-09-30T19:17:18Z</time>
      </trkpt>
      <trkpt lat="52.559198" lon="-1.697925">
       <ele>68</ele>
       <time>2023-09-30T19:17:26Z</time>
      </trkpt>
      <trkpt lat="52.560514" lon="-1.698767">
       <ele>68</ele>
       <time>2023-09-30T19:17:55Z</time>
      </trkpt>
      <trkpt lat="52.560614" lon="-1.700060">
       <ele>69</ele>
       <time>2023-09-30T19:18:12Z</time>
      </trkpt>
      <trkpt lat="52.560163" lon="-1.700468">
       <ele>69</ele>
       <time>2023-09-30T19:18:22Z</time>
      </trkpt>
      <trkpt lat="52.560043" lon="-1.700880">
       <ele>69</ele>
       <time>2023-09-30T19:18:28Z</time>
      </trkpt>
      <trkpt lat="52.561946" lon="-1.702237">
       <ele>67</ele>
       <time>2023-09-30T19:19:11Z</time>
      </trkpt>
      <trkpt lat="52.562960" lon="-1.703651">
       <ele>69</ele>
       <time>2023-09-30T19:19:39Z</time>
      </trkpt>
      <trkpt lat="52.563647" lon="-1.705322">
       <ele>66</ele>
       <time>2023-09-30T19:20:04Z</time>
      </trkpt>
      <trkpt lat="52.564076" lon="-1.707746">
       <ele>67</ele>
       <time>2023-09-30T19:20:36Z</time>
      </trkpt>
      <trkpt lat="52.563136" lon="-1.707786">
       <ele>68</ele>
       <time>2023-09-30T19:20:55Z</time>
      </trkpt>
      <trkpt lat="52.562225" lon="-1.707268">
       <ele>68</ele>
       <time>2023-09-30T19:21:15Z</time>
      </trkpt>
      <trkpt lat="52.561911" lon="-1.709049">
       <ele>71</ele>
       <time>2023-09-30T19:21:39Z</time>
      </trkpt>
      <trkpt lat="52.562225" lon="-1.707268">
       <ele>68</ele>
       <time>2023-09-30T19:22:02Z</time>
      </trkpt>
      <trkpt lat="52.563136" lon="-1.707786">
       <ele>68</ele>
       <time>2023-09-30T19:22:22Z</time>
      </trkpt>
      <trkpt lat="52.564076" lon="-1.707746">
       <ele>67</ele>
       <time>2023-09-30T19:22:42Z</time>
      </trkpt>
      <trkpt lat="52.563436" lon="-1.704745">
       <ele>67</ele>
       <time>2023-09-30T19:23:22Z</time>
      </trkpt>
      <trkpt lat="52.562960" lon="-1.703651">
       <ele>69</ele>
       <time>2023-09-30T19:23:39Z</time>
      </trkpt>
      <trkpt lat="52.561946" lon="-1.702237">
       <ele>67</ele>
       <time>2023-09-30T19:24:06Z</time>
      </trkpt>
      <trkpt lat="52.560679" lon="-1.701210">
       <ele>67</ele>
       <time>2023-09-30T19:24:35Z</time>
      </trkpt>
      <trkpt lat="52.556932" lon="-1.699245">
       <ele>69</ele>
       <time>2023-09-30T19:25:57Z</time>
      </trkpt>
      <trkpt lat="52.553079" lon="-1.693752">
       <ele>69</ele>
       <time>2023-09-30T19:27:43Z</time>
      </trkpt>
      <trkpt lat="52.550610" lon="-1.693855">
       <ele>70</ele>
       <time>2023-09-30T19:28:34Z</time>
      </trkpt>
      <trkpt lat="52.550255" lon="-1.693617">
       <ele>70</ele>
       <time>2023-09-30T19:28:42Z</time>
      </trkpt>
      <trkpt lat="52.550044" lon="-1.693020">
       <ele>70</ele>
       <time>2023-09-30T19:28:51Z</time>
      </trkpt>
      <trkpt lat="52.549348" lon="-1.693019">
       <ele>71</ele>
       <time>2023-09-30T19:29:05Z</time>
      </trkpt>
      <trkpt lat="52.548596" lon="-1.692525">
       <ele>69</ele>
       <time>2023-09-30T19:29:22Z</time>
      </trkpt>
      <trkpt lat="52.546023" lon="-1.687319">
       <ele>66</ele>
       <time>2023-09-30T19:30:46Z</time>
      </trkpt>
      <trkpt lat="52.545670" lon="-1.686166">
       <ele>66</ele>
       <time>2023-09-30T19:31:03Z</time>
      </trkpt>
      <trkpt lat="52.545484" lon="-1.684649">
       <ele>68</ele>
       <time>2023-09-30T19:31:22Z</time>
      </trkpt>
      <trkpt lat="52.544701" lon="-1.683453">
       <ele>69</ele>
       <time>2023-09-30T19:31:44Z</time>
      </trkpt>
      <trkpt lat="52.544349" lon="-1.683109">
       <ele>69</ele>
       <time>2023-09-30T19:31:53Z</time>
      </trkpt>
      <trkpt lat="52.542376" lon="-1.683378">
       <ele>68</ele>
       <time>2023-09-30T19:32:34Z</time>
      </trkpt>
      <trkpt lat="52.537693" lon="-1.679277">
       <ele>70</ele>
       <time>2023-09-30T19:34:24Z</time>
      </trkpt>
      <trkpt lat="52.534347" lon="-1.678372">
       <ele>72</ele>
       <time>2023-09-30T19:35:34Z</time>
      </trkpt>
      <trkpt lat="52.533016" lon="-1.678652">
       <ele>73</ele>
       <time>2023-09-30T19:36:02Z</time>
      </trkpt>
      <trkpt lat="52.529132" lon="-1.678078">
       <ele>72</ele>
       <time>2023-09-30T19:37:23Z</time>
      </trkpt>
      <trkpt lat="52.528131" lon="-1.678171">
       <ele>73</ele>
       <time>2023-09-30T19:37:44Z</time>
      </trkpt>
      <trkpt lat="52.526808" lon="-1.677597">
       <ele>72</ele>
       <time>2023-09-30T19:38:12Z</time>
      </trkpt>
      <trkpt lat="52.525815" lon="-1.677557">
       <ele>73</ele>
       <time>2023-09-30T19:38:33Z</time>
      </trkpt>
      <trkpt lat="52.524057" lon="-1.678447">
       <ele>74</ele>
       <time>2023-09-30T19:39:11Z</time>
      </trkpt>
      <trkpt lat="52.519757" lon="-1.681138">
       <ele>74</ele>
       <time>2023-09-30T19:40:46Z</time>
      </trkpt>
      <trkpt lat="52.518518" lon="-1.681341">
       <ele>75</ele>
       <time>2023-09-30T19:41:12Z</time>
      </trkpt>
      <trkpt lat="52.517121" lon="-1.681971">
       <ele>76</ele>
       <time>2023-09-30T19:41:42Z</time>
      </trkpt>
      <trkpt lat="52.515772" lon="-1.682153">
       <ele>77</ele>
       <time>2023-09-30T19:42:10Z</time>
      </trkpt>
      <trkpt lat="52.514590" lon="-1.677546">
       <ele>77</ele>
       <time>2023-09-30T19:43:13Z</time>
      </trkpt>
      <trkpt lat="52.515404" lon="-1.672439">
       <ele>81</ele>
       <time>2023-09-30T19:44:20Z</time>
      </trkpt>
      <trkpt lat="52.515457" lon="-1.670079">
       <ele>81</ele>
       <time>2023-09-30T19:44:50Z</time>
      </trkpt>
      <trkpt lat="52.512048" lon="-1.669709">
       <ele>83</ele>
       <time>2023-09-30T19:46:00Z</time>
      </trkpt>
      <trkpt lat="52.509923" lon="-1.669239">
       <ele>86</ele>
       <time>2023-09-30T19:46:45Z</time>
      </trkpt>
      <trkpt lat="52.508285" lon="-1.669400">
       <ele>87</ele>
       <time>2023-09-30T19:47:19Z</time>
      </trkpt>
      <trkpt lat="52.507587" lon="-1.669175">
       <ele>83</ele>
       <time>2023-09-30T19:47:34Z</time>
      </trkpt>
      <trkpt lat="52.504829" lon="-1.667529">
       <ele>78</ele>
       <time>2023-09-30T19:48:35Z</time>
      </trkpt>
      <trkpt lat="52.503990" lon="-1.667397">
       <ele>81</ele>
       <time>2023-09-30T19:48:52Z</time>
      </trkpt>
      <trkpt lat="52.492496" lon="-1.661435">
       <ele>88</ele>
       <time>2023-09-30T19:53:02Z</time>
      </trkpt>
      <trkpt lat="52.490527" lon="-1.660891">
       <ele>88</ele>
       <time>2023-09-30T19:53:43Z</time>
      </trkpt>
      <trkpt lat="52.490284" lon="-1.657945">
       <ele>90</ele>
       <time>2023-09-30T19:54:21Z</time>
      </trkpt>
      <trkpt lat="52.489105" lon="-1.658129">
       <ele>88</ele>
       <time>2023-09-30T19:54:45Z</time>
      </trkpt>
      <trkpt lat="52.487979" lon="-1.657910">
       <ele>89</ele>
       <time>2023-09-30T19:55:09Z</time>
      </trkpt>
      <trkpt lat="52.486060" lon="-1.659236">
       <ele>90</ele>
       <time>2023-09-30T19:55:52Z</time>
      </trkpt>
      <trkpt lat="52.485156" lon="-1.659475">
       <ele>88</ele>
       <time>2023-09-30T19:56:11Z</time>
      </trkpt>
      <trkpt lat="52.481020" lon="-1.658548">
       <ele>85</ele>
       <time>2023-09-30T19:57:38Z</time>
      </trkpt>
      <trkpt lat="52.479829" lon="-1.657810">
       <ele>89</ele>
       <time>2023-09-30T19:58:04Z</time>
      </trkpt>
      <trkpt lat="52.479653" lon="-1.657537">
       <ele>90</ele>
       <time>2023-09-30T19:58:09Z</time>
      </trkpt>
      <trkpt lat="52.479490" lon="-1.653655">
       <ele>101</ele>
       <time>2023-09-30T19:58:58Z</time>
      </trkpt>
      <trkpt lat="52.479059" lon="-1.653560">
       <ele>100</ele>
       <time>2023-09-30T19:59:07Z</time>
      </trkpt>
      <trkpt lat="52.476031" lon="-1.653534">
       <ele>104</ele>
       <time>2023-09-30T20:00:10Z</time>
      </trkpt>
      <trkpt lat="52.473084" lon="-1.652903">
       <ele>105</ele>
       <time>2023-09-30T20:01:12Z</time>
      </trkpt>
      <trkpt lat="52.472484" lon="-1.653013">
       <ele>105</ele>
       <time>2023-09-30T20:01:24Z</time>
      </trkpt>
      <trkpt lat="52.469129" lon="-1.654596">
       <ele>100</ele>
       <time>2023-09-30T20:02:37Z</time>
      </trkpt>
      <trkpt lat="52.466948" lon="-1.654808">
       <ele>106</ele>
       <time>2023-09-30T20:03:22Z</time>
      </trkpt>
      <trkpt lat="52.465195" lon="-1.654358">
       <ele>108</ele>
       <time>2023-09-30T20:03:59Z</time>
      </trkpt>
      <trkpt lat="52.464476" lon="-1.654697">
       <ele>112</ele>
       <time>2023-09-30T20:04:14Z</time>
      </trkpt>
      <trkpt lat="52.462344" lon="-1.653294">
       <ele>114</ele>
       <time>2023-09-30T20:05:02Z</time>
      </trkpt>
      <trkpt lat="52.460039" lon="-1.650524">
       <ele>119</ele>
       <time>2023-09-30T20:06:01Z</time>
      </trkpt>
      <trkpt lat="52.459536" lon="-1.650164">
       <ele>119</ele>
       <time>2023-09-30T20:06:12Z</time>
      </trkpt>
      <trkpt lat="52.457505" lon="-1.650058">
       <ele>126</ele>
       <time>2023-09-30T20:06:54Z</time>
      </trkpt>
      <trkpt lat="52.454265" lon="-1.650800">
       <ele>102</ele>
       <time>2023-09-30T20:08:02Z</time>
      </trkpt>
      <trkpt lat="52.452802" lon="-1.649306">
       <ele>103</ele>
       <time>2023-09-30T20:08:38Z</time>
      </trkpt>
      <trkpt lat="52.451392" lon="-1.648574">
       <ele>111</ele>
       <time>2023-09-30T20:09:09Z</time>
      </trkpt>
      <trkpt lat="52.450672" lon="-1.648691">
       <ele>110</ele>
       <time>2023-09-30T20:09:24Z</time>
      </trkpt>
      <trkpt lat="52.450017" lon="-1.649150">
       <ele>107</ele>
       <time>2023-09-30T20:09:38Z</time>
      </trkpt>
      <trkpt lat="52.447222" lon="-1.652272">
       <ele>116</ele>
       <time>2023-09-30T20:10:49Z</time>
      </trkpt>
      <trkpt lat="52.446415" lon="-1.652806">
       <ele>116</ele>
       <time>2023-09-30T20:11:07Z</time>
      </trkpt>
      <trkpt lat="52.445667" lon="-1.652920">
       <ele>116</ele>
       <time>2023-09-30T20:11:22Z</time>
      </trkpt>
      <trkpt lat="52.443867" lon="-1.652171">
       <ele>115</ele>
       <time>2023-09-30T20:12:01Z</time>
      </trkpt>
      <trkpt lat="52.442218" lon="-1.652234">
       <ele>111</ele>
       <time>2023-09-30T20:12:35Z</time>
      </trkpt>
      <trkpt lat="52.441338" lon="-1.652512">
       <ele>109</ele>
       <time>2023-09-30T20:12:53Z</time>
      </trkpt>
      <trkpt lat="52.440176" lon="-1.653571">
       <ele>110</ele>
       <time>2023-09-30T20:13:21Z</time>
      </trkpt>
      <trkpt lat="52.439568" lon="-1.653879">
       <ele>112</ele>
       <time>2023-09-30T20:13:34Z</time>
      </trkpt>
      <trkpt lat="52.439019" lon="-1.653459">
       <ele>112</ele>
       <time>2023-09-30T20:13:47Z</time>
      </trkpt>
      <trkpt lat="52.438123" lon="-1.650887">
       <ele>117</ele>
       <time>2023-09-30T20:14:24Z</time>
      </trkpt>
      <trkpt lat="52.438099" lon="-1.650212">
       <ele>117</ele>
       <time>2023-09-30T20:14:33Z</time>
      </trkpt>
      <trkpt lat="52.437872" lon="-1.650123">
       <ele>117</ele>
       <time>2023-09-30T20:14:38Z</time>
      </trkpt>
      <trkpt lat="52.433700" lon="-1.672728">
       <ele>94</ele>
       <time>2023-09-30T20:19:36Z</time>
      </trkpt>
      <trkpt lat="52.433346" lon="-1.673822">
       <ele>92</ele>
       <time>2023-09-30T20:19:52Z</time>
      </trkpt>
      <trkpt lat="52.432810" lon="-1.674173">
       <ele>92</ele>
       <time>2023-09-30T20:20:04Z</time>
      </trkpt>
      <trkpt lat="52.432666" lon="-1.674487">
       <ele>92</ele>
       <time>2023-09-30T20:20:09Z</time>
      </trkpt>
      <trkpt lat="52.432947" lon="-1.676151">
       <ele>91</ele>
       <time>2023-09-30T20:20:31Z</time>
      </trkpt>
      <trkpt lat="52.432893" lon="-1.676888">
       <ele>90</ele>
       <time>2023-09-30T20:20:40Z</time>
      </trkpt>
      <trkpt lat="52.432621" lon="-1.677657">
       <ele>89</ele>
       <time>2023-09-30T20:20:51Z</time>
      </trkpt>
      <trkpt lat="52.431241" lon="-1.679654">
       <ele>89</ele>
       <time>2023-09-30T20:21:29Z</time>
      </trkpt>
      <trkpt lat="52.430505" lon="-1.682301">
       <ele>89</ele>
       <time>2023-09-30T20:22:06Z</time>
      </trkpt>
      <trkpt lat="52.429733" lon="-1.683961">
       <ele>88</ele>
       <time>2023-09-30T20:22:33Z</time>
      </trkpt>
      <trkpt lat="52.429341" lon="-1.685645">
       <ele>87</ele>
       <time>2023-09-30T20:22:55Z</time>
      </trkpt>
      <trkpt lat="52.429429" lon="-1.687803">
       <ele>88</ele>
       <time>2023-09-30T20:23:23Z</time>
      </trkpt>
      <trkpt lat="52.431319" lon="-1.693027">
       <ele>94</ele>
       <time>2023-09-30T20:24:39Z</time>
      </trkpt>
      <trkpt lat="52.431243" lon="-1.695558">
       <ele>97</ele>
       <time>2023-09-30T20:25:12Z</time>
      </trkpt>
      <trkpt lat="52.430778" lon="-1.697412">
       <ele>97</ele>
       <time>2023-09-30T20:25:37Z</time>
      </trkpt>
      <trkpt lat="52.429236" lon="-1.699974">
       <ele>103</ele>
       <time>2023-09-30T20:26:22Z</time>
      </trkpt>
      <trkpt lat="52.428020" lon="-1.701109">
       <ele>111</ele>
       <time>2023-09-30T20:26:51Z</time>
      </trkpt>
      <trkpt lat="52.426091" lon="-1.702431">
       <ele>119</ele>
       <time>2023-09-30T20:27:35Z</time>
      </trkpt>
      <trkpt lat="52.424320" lon="-1.702498">
       <ele>120</ele>
       <time>2023-09-30T20:28:11Z</time>
      </trkpt>
      <trkpt lat="52.424053" lon="-1.705733">
       <ele>113</ele>
       <time>2023-09-30T20:28:53Z</time>
      </trkpt>
      <trkpt lat="52.421689" lon="-1.706293">
       <ele>100</ele>
       <time>2023-09-30T20:29:42Z</time>
      </trkpt>
      <trkpt lat="52.420354" lon="-1.706822">
       <ele>97</ele>
       <time>2023-09-30T20:30:11Z</time>
      </trkpt>
      <trkpt lat="52.418767" lon="-1.708750">
       <ele>96</ele>
       <time>2023-09-30T20:30:52Z</time>
      </trkpt>
      <trkpt lat="52.416619" lon="-1.710293">
       <ele>99</ele>
       <time>2023-09-30T20:31:40Z</time>
      </trkpt>
      <trkpt lat="52.415251" lon="-1.711538">
       <ele>103</ele>
       <time>2023-09-30T20:32:13Z</time>
      </trkpt>
      <trkpt lat="52.413135" lon="-1.712865">
       <ele>108</ele>
       <time>2023-09-30T20:33:00Z</time>
      </trkpt>
      <trkpt lat="52.411044" lon="-1.713209">
       <ele>118</ele>
       <time>2023-09-30T20:33:43Z</time>
      </trkpt>
      <trkpt lat="52.410298" lon="-1.714308">
       <ele>118</ele>
       <time>2023-09-30T20:34:04Z</time>
      </trkpt>
      <trkpt lat="52.406521" lon="-1.718064">
       <ele>121</ele>
       <time>2023-09-30T20:35:36Z</time>
      </trkpt>
      <trkpt lat="52.405392" lon="-1.719735">
       <ele>124</ele>
       <time>2023-09-30T20:36:07Z</time>
      </trkpt>
      <trkpt lat="52.404726" lon="-1.720336">
       <ele>121</ele>
       <time>2023-09-30T20:36:23Z</time>
      </trkpt>
      <trkpt lat="52.401438" lon="-1.722368">
       <ele>106</ele>
       <time>2023-09-30T20:37:36Z</time>
      </trkpt>
      <trkpt lat="52.400083" lon="-1.723628">
       <ele>110</ele>
       <time>2023-09-30T20:38:08Z</time>
      </trkpt>
      <trkpt lat="52.398311" lon="-1.724141">
       <ele>120</ele>
       <time>2023-09-30T20:38:45Z</time>
      </trkpt>
      <trkpt lat="52.397930" lon="-1.724469">
       <ele>122</ele>
       <time>2023-09-30T20:38:54Z</time>
      </trkpt>
      <trkpt lat="52.397454" lon="-1.725389">
       <ele>123</ele>
       <time>2023-09-30T20:39:10Z</time>
      </trkpt>
      <trkpt lat="52.396530" lon="-1.729278">
       <ele>127</ele>
       <time>2023-09-30T20:40:02Z</time>
      </trkpt>
      <trkpt lat="52.395467" lon="-1.731839">
       <ele>129</ele>
       <time>2023-09-30T20:40:42Z</time>
      </trkpt>
      <trkpt lat="52.394481" lon="-1.733404">
       <ele>126</ele>
       <time>2023-09-30T20:41:10Z</time>
      </trkpt>
      <trkpt lat="52.391395" lon="-1.736145">
       <ele>126</ele>
       <time>2023-09-30T20:42:23Z</time>
      </trkpt>
      <trkpt lat="52.390291" lon="-1.736721">
       <ele>128</ele>
       <time>2023-09-30T20:42:47Z</time>
      </trkpt>
      <trkpt lat="52.390450" lon="-1.737072">
       <ele>127</ele>
       <time>2023-09-30T20:42:52Z</time>
      </trkpt>
      <trkpt lat="52.389510" lon="-1.738428">
       <ele>128</ele>
       <time>2023-09-30T20:43:18Z</time>
      </trkpt>
      <trkpt lat="52.389747" lon="-1.741240">
       <ele>123</ele>
       <time>2023-09-30T20:43:54Z</time>
      </trkpt>
      <trkpt lat="52.389769" lon="-1.752935">
       <ele>135</ele>
       <time>2023-09-30T20:46:22Z</time>
      </trkpt>
      <trkpt lat="52.392067" lon="-1.755167">
       <ele>128</ele>
       <time>2023-09-30T20:47:18Z</time>
      </trkpt>
      <trkpt lat="52.391340" lon="-1.756381">
       <ele>125</ele>
       <time>2023-09-30T20:47:39Z</time>
      </trkpt>
      <trkpt lat="52.389812" lon="-1.757905">
       <ele>129</ele>
       <time>2023-09-30T20:48:16Z</time>
      </trkpt>
      <trkpt lat="52.388998" lon="-1.759443">
       <ele>131</ele>
       <time>2023-09-30T20:48:42Z</time>
      </trkpt>
      <trkpt lat="52.387030" lon="-1.760828">
       <ele>135</ele>
       <time>2023-09-30T20:49:26Z</time>
      </trkpt>
      <trkpt lat="52.384731" lon="-1.762275">
       <ele>139</ele>
       <time>2023-09-30T20:50:18Z</time>
      </trkpt>
      <trkpt lat="52.383163" lon="-1.762383">
       <ele>136</ele>
       <time>2023-09-30T20:50:50Z</time>
      </trkpt>
      <trkpt lat="52.378676" lon="-1.764496">
       <ele>131</ele>
       <time>2023-09-30T20:52:27Z</time>
      </trkpt>
      <trkpt lat="52.376363" lon="-1.766899">
       <ele>132</ele>
       <time>2023-09-30T20:53:24Z</time>
      </trkpt>
      <trkpt lat="52.375143" lon="-1.768502">
       <ele>133</ele>
       <time>2023-09-30T20:53:56Z</time>
      </trkpt>
      <trkpt lat="52.374358" lon="-1.769081">
       <ele>134</ele>
       <time>2023-09-30T20:54:14Z</time>
      </trkpt>
      <trkpt lat="52.373296" lon="-1.769539">
       <ele>137</ele>
       <time>2023-09-30T20:54:37Z</time>
      </trkpt>
      <trkpt lat="52.372241" lon="-1.770641">
       <ele>139</ele>
       <time>2023-09-30T20:55:03Z</time>
      </trkpt>
      <trkpt lat="52.370357" lon="-1.771871">
       <ele>136</ele>
       <time>2023-09-30T20:55:45Z</time>
      </trkpt>
      <trkpt lat="52.369069" lon="-1.773051">
       <ele>136</ele>
       <time>2023-09-30T20:56:15Z</time>
      </trkpt>
      <trkpt lat="52.367170" lon="-1.775203">
       <ele>141</ele>
       <time>2023-09-30T20:57:03Z</time>
      </trkpt>
      <trkpt lat="52.365159" lon="-1.778800">
       <ele>143</ele>
       <time>2023-09-30T20:58:05Z</time>
      </trkpt>
      <trkpt lat="52.364204" lon="-1.782095">
       <ele>143</ele>
       <time>2023-09-30T20:58:51Z</time>
      </trkpt>
      <trkpt lat="52.364421" lon="-1.782278">
       <ele>143</ele>
       <time>2023-09-30T20:58:56Z</time>
      </trkpt>
      <trkpt lat="52.365839" lon="-1.786244">
       <ele>143</ele>
       <time>2023-09-30T20:59:54Z</time>
      </trkpt>
      <trkpt lat="52.366675" lon="-1.792396">
       <ele>137</ele>
       <time>2023-09-30T21:01:14Z</time>
      </trkpt>
      <trkpt lat="52.368185" lon="-1.797606">
       <ele>134</ele>
       <time>2023-09-30T21:02:27Z</time>
      </trkpt>
      <trkpt lat="52.368110" lon="-1.799621">
       <ele>142</ele>
       <time>2023-09-30T21:02:53Z</time>
      </trkpt>
      <trkpt lat="52.365957" lon="-1.804254">
       <ele>145</ele>
       <time>2023-09-30T21:04:06Z</time>
      </trkpt>
      <trkpt lat="52.364725" lon="-1.805237">
       <ele>143</ele>
       <time>2023-09-30T21:04:35Z</time>
      </trkpt>
      <trkpt lat="52.359020" lon="-1.815123">
       <ele>150</ele>
       <time>2023-09-30T21:07:27Z</time>
      </trkpt>
      <trkpt lat="52.359439" lon="-1.817090">
       <ele>145</ele>
       <time>2023-09-30T21:07:53Z</time>
      </trkpt>
      <trkpt lat="52.359648" lon="-1.819437">
       <ele>142</ele>
       <time>2023-09-30T21:08:24Z</time>
      </trkpt>
      <trkpt lat="52.360272" lon="-1.821357">
       <ele>151</ele>
       <time>2023-09-30T21:08:51Z</time>
      </trkpt>
      <trkpt lat="52.360768" lon="-1.824467">
       <ele>153</ele>
       <time>2023-09-30T21:09:32Z</time>
      </trkpt>
      <trkpt lat="52.361685" lon="-1.827247">
       <ele>151</ele>
       <time>2023-09-30T21:10:12Z</time>
      </trkpt>
      <trkpt lat="52.363102" lon="-1.829241">
       <ele>150</ele>
       <time>2023-09-30T21:10:51Z</time>
      </trkpt>
      <trkpt lat="52.363203" lon="-1.829695">
       <ele>150</ele>
       <time>2023-09-30T21:10:57Z</time>
      </trkpt>
      <trkpt lat="52.363397" lon="-1.829607">
       <ele>149</ele>
       <time>2023-09-30T21:11:01Z</time>
      </trkpt>
      <trkpt lat="52.364882" lon="-1.831381">
       <ele>141</ele>
       <time>2023-09-30T21:11:39Z</time>
      </trkpt>
      <trkpt lat="52.367973" lon="-1.836149">
       <ele>145</ele>
       <time>2023-09-30T21:13:07Z</time>
      </trkpt>
      <trkpt lat="52.368562" lon="-1.835768">
       <ele>146</ele>
       <time>2023-09-30T21:13:20Z</time>
      </trkpt>
      <trkpt lat="52.369947" lon="-1.835843">
       <ele>147</ele>
       <time>2023-09-30T21:13:49Z</time>
      </trkpt>
    </trkseg>
  </trk>
</gpx>
